Langley, Virginia
Current Conditions -  °F | °C
As of 12:58 AM on Thursday 23 Oct 2014 (Local Time) from KLFI Reporting Station
Overcast Overcast  
Wind Chill: 55°   Ceiling: 3600
Heat Index: 55°   Visibility: 10mi
Dew Point: 46°   Wind: 17mph
Humidity: 73%   Direction: 310°NW
Pressure: 29.89"   Gusts: 29mph
Location:  37.0868°N, 76.3631°W
Report Text: KLFI 230458Z AUTO 31015G25KT 10SM OVC036 13/08 A2989 RMK AO2 SLP129 T01250077 401530118 $
Loading
Personal Weather Stations






























Interactive Weather Map
Tropical Storm Tracking
New forecast layout! Learn more

10-Day Weather Forecast

Advertisements
Track Severe Weather on mobile